This is the latest recevied weather packets stored in our database for station/object IW1RID-3. If no packets are shown the sender has not sent any weather packets the latest 10 day(s).
| Time | Temp. | Humidity | Pressure | Rain* | Wind** | Luminosity | Snow |
|---|---|---|---|---|---|---|---|
| 1787972239 | 18.89° C | 86% | 1070.9 hPa | - | - | - | - |
| 1787971034 | 18.89° C | 87% | 1070.8 hPa | - | - | - | - |
| 1787969830 | 20° C | 83% | 1070.9 hPa | - | - | - | - |
| 1787968625 | 20.56° C | 79% | 1070.4 hPa | - | - | - | - |
| 1787967420 | 20° C | 86% | 1070.4 hPa | - | - | - | - |
| 1787966216 | 20° C | 87% | 1070 hPa | - | - | - | - |
| 1787965010 | 20.56° C | 86% | 1069.7 hPa | - | - | - | - |
| 1787963805 | 21.11° C | 83% | 1069.9 hPa | - | - | - | - |
| 1787962601 | 20.56° C | 86% | 1070.3 hPa | - | - | - | - |
| 1787960192 | 21.67° C | 83% | 1070.7 hPa | - | - | - | - |
| 1787958987 | 22.22° C | 81% | 1070.9 hPa | - | - | - | - |
| 1787957783 | 22.78° C | 75% | 1070.9 hPa | - | - | - | - |
| 1787956578 | 22.22° C | 84% | 1070.5 hPa | - | - | - | - |
| 1787955373 | 22.22° C | 86% | 1070.3 hPa | - | - | - | - |
| 1787954169 | 22.22° C | 87% | 1069.8 hPa | - | - | - | - |
| 1787952964 | 22.22° C | 86% | 1069.9 hPa | - | - | - | - |
| 1787951759 | 22.78° C | 84% | 1069.6 hPa | - | - | - | - |
| 1787950554 | 23.33° C | 85% | 1069.8 hPa | - | - | - | - |
| 1787949350 | 23.89° C | 84% | 1070.1 hPa | - | - | - | - |
| 1787948145 | 24.44° C | 83% | 1070.1 hPa | - | - | - | - |
| 1787946999 | 25° C | 80% | 1070.4 hPa | - | - | - | - |
| 1787946940 | 25° C | 80% | 1070.4 hPa | - | - | - | - |
| 1787945735 | 25° C | 81% | 1070.5 hPa | - | - | - | - |
| 1787944531 | 25.56° C | 79% | 1070.3 hPa | - | - | - | - |
| 1787943326 | 26.67° C | 74% | 1070.3 hPa | - | - | - | - |
* Rain since midnight (hover to see other rain measurements)
** Current wind speed in m/s (hover to see current wind gust speed)